Terminal Aerodrome Forecast
Issued by NWS Corpus Christi, TX

Home | Current Version | Previous Version | Text Only | Print | Product List | Glossary On
Versions: 1 2 3 4 5 6 7 8 9 10 11 12 13 14 15 16
000
FTUS44 KCRP 301200 AAA
TAFVCT
TAF AMD
KVCT 301243Z 3013/3112 04004KT P6SM BKN020
     FM301600 VRB05KT P6SM SCT035
     FM310200 15008KT P6SM SCT040
     FM310800 03003KT 5SM BR SCT015 BKN050=

USA.gov is the U.S. government's official web portal to all federal, state and local government web resources and services.